createdAt,value
2022-09-17T00:02:18.759Z,10.50
2022-09-17T00:04:50.303Z,8.90
2022-09-17T00:07:20.127Z,8.25
2022-09-17T00:09:50.154Z,7.93
2022-09-17T00:12:19.936Z,10.55
2022-09-17T00:14:50.065Z,10.13
2022-09-17T00:17:20.067Z,13.35
2022-09-17T00:19:51.254Z,15.32
2022-09-17T00:22:21.112Z,13.38
2022-09-17T00:24:51.006Z,13.35
2022-09-17T00:27:20.718Z,10.98
2022-09-17T00:29:50.938Z,11.52
2022-09-17T00:32:21.585Z,11.52
2022-09-17T00:34:53.484Z,8.95
2022-09-17T00:37:23.523Z,11.68
2022-09-17T00:39:53.350Z,10.80
2022-09-17T00:42:23.243Z,14.13
2022-09-17T00:44:54.669Z,10.15
2022-09-17T00:47:24.669Z,8.48
2022-09-17T00:49:55.606Z,10.80
2022-09-17T00:52:27.343Z,7.82
2022-09-17T00:54:59.279Z,8.40
2022-09-17T00:57:29.053Z,7.35
2022-09-17T00:59:58.816Z,8.02
2022-09-17T01:02:28.789Z,7.07
2022-09-17T01:04:58.531Z,9.45
2022-09-17T01:07:31.572Z,10.05
2022-09-17T01:10:01.463Z,6.00
2022-09-17T01:12:41.197Z,10.40
2022-09-17T01:15:11.234Z,7.45
2022-09-17T01:17:40.959Z,6.65
2022-09-17T01:20:18.027Z,8.50
2022-09-17T01:23:02.432Z,8.52
2022-09-17T01:25:35.318Z,11.20
2022-09-17T01:28:05.165Z,7.80
2022-09-17T01:30:53.616Z,9.02
2022-09-17T01:33:33.353Z,7.85
2022-09-17T01:36:03.036Z,5.80
2022-09-17T01:38:37.093Z,8.38
2022-09-17T01:41:12.259Z,11.57
2022-09-17T01:43:45.731Z,8.93
2022-09-17T01:46:20.746Z,13.32
2022-09-17T01:48:51.858Z,10.60
2022-09-17T01:51:29.096Z,13.98
2022-09-17T01:54:01.622Z,12.20
2022-09-17T01:56:33.830Z,10.25
2022-09-17T01:59:14.675Z,9.60
2022-09-17T02:01:44.612Z,9.13
2022-09-17T02:04:16.501Z,9.45
2022-09-17T02:06:47.612Z,11.32
2022-09-17T02:09:19.301Z,14.90
2022-09-17T02:11:50.855Z,8.13
2022-09-17T02:14:28.634Z,10.63
2022-09-17T02:17:06.640Z,15.00
2022-09-17T02:19:39.720Z,12.90
2022-09-17T02:22:15.272Z,10.75
2022-09-17T02:25:00.352Z,13.25
2022-09-17T02:27:48.582Z,12.82
2022-09-17T02:30:18.632Z,10.95
2022-09-17T02:32:48.877Z,12.95
2022-09-17T02:35:18.691Z,9.93
2022-09-17T02:37:48.756Z,9.70
2022-09-17T02:40:19.090Z,10.18
2022-09-17T02:43:01.850Z,13.00
2022-09-17T02:45:41.335Z,8.77
2022-09-17T02:48:29.681Z,9.57
2022-09-17T02:51:05.041Z,9.93
2022-09-17T02:53:49.297Z,10.15
2022-09-17T02:56:25.200Z,11.85
2022-09-17T02:58:57.959Z,11.07
2022-09-17T03:01:42.287Z,9.32
2022-09-17T03:04:12.522Z,9.27
2022-09-17T03:06:43.140Z,7.93
2022-09-17T03:09:12.854Z,9.25
2022-09-17T03:11:42.607Z,10.90
2022-09-17T03:14:12.569Z,9.32
2022-09-17T03:16:42.908Z,9.48
2022-09-17T03:19:13.271Z,9.48
2022-09-17T03:21:43.700Z,11.27
2022-09-17T03:24:14.154Z,9.32
2022-09-17T03:26:44.454Z,7.55
2022-09-17T03:29:14.961Z,10.30
2022-09-17T03:31:45.425Z,9.93
2022-09-17T03:34:17.923Z,8.68
2022-09-17T03:36:48.104Z,8.65
2022-09-17T03:39:18.181Z,9.00
2022-09-17T03:41:47.982Z,7.93
2022-09-17T03:44:20.335Z,9.55
2022-09-17T03:46:50.525Z,8.48
2022-09-17T03:49:20.482Z,7.45
2022-09-17T03:51:50.383Z,7.10
2022-09-17T03:54:20.237Z,8.57
2022-09-17T03:56:50.138Z,11.98
2022-09-17T03:59:20.106Z,9.50
2022-09-17T04:01:49.966Z,11.40
2022-09-17T04:04:19.943Z,9.93
2022-09-17T04:06:49.849Z,10.23
2022-09-17T04:09:19.818Z,6.28
2022-09-17T04:11:49.746Z,7.65
2022-09-17T04:14:19.660Z,9.02
2022-09-17T04:16:49.475Z,10.63
2022-09-17T04:19:19.459Z,8.45
2022-09-17T04:21:49.323Z,8.02
2022-09-17T04:24:19.383Z,6.00
2022-09-17T04:26:49.259Z,8.25
2022-09-17T04:29:19.312Z,10.15
2022-09-17T04:31:49.261Z,10.20
2022-09-17T04:34:19.446Z,14.15
2022-09-17T04:36:50.323Z,8.38
2022-09-17T04:39:20.214Z,9.02
2022-09-17T04:41:50.161Z,8.98
2022-09-17T04:44:21.444Z,7.85
2022-09-17T04:46:51.782Z,13.95
2022-09-17T04:49:22.293Z,9.98
2022-09-17T04:51:53.032Z,8.90
2022-09-17T04:54:27.462Z,8.48
2022-09-17T04:56:58.076Z,7.80
2022-09-17T04:59:30.603Z,7.15
2022-09-17T05:02:00.980Z,8.10
2022-09-17T05:04:31.153Z,6.90
2022-09-17T05:07:02.070Z,7.15
2022-09-17T05:09:32.166Z,9.40
2022-09-17T05:12:02.481Z,7.43
2022-09-17T05:14:32.263Z,10.23
2022-09-17T05:17:02.254Z,9.65
2022-09-17T05:19:32.379Z,9.23
2022-09-17T05:22:02.455Z,11.05
2022-09-17T05:24:32.795Z,8.43
2022-09-17T05:27:02.626Z,7.63
2022-09-17T05:29:33.147Z,7.43
2022-09-17T05:32:03.618Z,8.30
2022-09-17T05:34:33.617Z,7.20
2022-09-17T05:37:03.726Z,5.35
2022-09-17T05:39:34.450Z,8.65
2022-09-17T05:42:04.741Z,8.23
2022-09-17T05:44:34.526Z,6.68
2022-09-17T05:47:04.550Z,5.22
2022-09-17T05:49:34.372Z,7.00
2022-09-17T05:52:05.436Z,5.28
2022-09-17T05:54:35.291Z,5.90
2022-09-17T05:57:05.198Z,6.88
2022-09-17T05:59:35.286Z,5.75
2022-09-17T06:02:05.477Z,5.78
2022-09-17T06:04:35.348Z,7.55
2022-09-17T06:07:10.570Z,11.45
2022-09-17T06:09:42.087Z,8.80
2022-09-17T06:12:11.872Z,8.02
2022-09-17T06:14:41.768Z,8.30
2022-09-17T06:17:11.982Z,9.32
2022-09-17T06:19:42.150Z,7.65
2022-09-17T06:22:12.339Z,10.02
2022-09-17T06:24:43.825Z,9.73
2022-09-17T06:27:16.751Z,12.75
2022-09-17T06:29:46.624Z,9.23
2022-09-17T06:32:18.403Z,12.55
2022-09-17T06:34:48.279Z,11.40
2022-09-17T06:37:18.180Z,9.75
2022-09-17T06:39:48.468Z,8.63
2022-09-17T06:42:18.228Z,11.43
2022-09-17T06:44:47.971Z,11.10
2022-09-17T06:47:18.140Z,8.65
2022-09-17T06:49:48.261Z,11.57
2022-09-17T06:52:18.092Z,9.73
2022-09-17T06:54:47.895Z,11.38
2022-09-17T06:57:18.479Z,10.23
2022-09-17T06:59:48.325Z,8.75
2022-09-17T07:02:18.792Z,6.10
2022-09-17T07:04:48.814Z,7.38
2022-09-17T07:07:19.062Z,9.75
2022-09-17T07:09:48.955Z,5.70
2022-09-17T07:12:18.991Z,5.38
2022-09-17T07:14:51.971Z,5.97
2022-09-17T07:17:22.583Z,7.15
2022-09-17T07:19:52.600Z,8.27
2022-09-17T07:22:22.467Z,3.60
2022-09-17T07:24:52.564Z,8.05
2022-09-17T07:27:24.306Z,7.15
2022-09-17T07:29:55.104Z,10.00
2022-09-17T07:32:28.048Z,8.55
2022-09-17T07:34:58.611Z,11.55
2022-09-17T07:37:28.453Z,6.97
2022-09-17T07:39:58.421Z,10.73
2022-09-17T07:42:29.081Z,8.43
2022-09-17T07:45:01.979Z,11.45
2022-09-17T07:47:32.892Z,8.80
2022-09-17T07:50:03.196Z,10.30
2022-09-17T07:52:33.761Z,9.30
2022-09-17T07:55:04.589Z,10.70
2022-09-17T07:57:35.074Z,8.23
2022-09-17T08:00:05.109Z,6.75
2022-09-17T08:02:35.391Z,7.13
2022-09-17T08:05:05.175Z,8.57
2022-09-17T08:07:35.392Z,7.90
2022-09-17T08:10:05.468Z,8.05
2022-09-17T08:12:35.488Z,6.82
2022-09-17T08:15:05.409Z,5.85
2022-09-17T08:17:36.749Z,6.55
2022-09-17T08:20:06.858Z,7.15
2022-09-17T08:22:37.464Z,6.80
2022-09-17T08:25:08.428Z,8.18
2022-09-17T08:27:40.862Z,7.68
2022-09-17T08:30:12.296Z,8.40
2022-09-17T08:32:45.487Z,5.03
2022-09-17T08:35:18.266Z,5.72
2022-09-17T08:37:49.721Z,5.97
2022-09-17T08:40:22.992Z,9.48
2022-09-17T08:42:59.357Z,8.55
2022-09-17T08:45:32.284Z,6.28
2022-09-17T08:48:06.897Z,6.53
2022-09-17T08:50:43.333Z,6.43
2022-09-17T08:53:25.985Z,9.85
2022-09-17T08:56:05.795Z,9.27
2022-09-17T08:58:43.351Z,9.15
2022-09-17T09:01:32.044Z,10.63
2022-09-17T09:04:04.952Z,6.75
2022-09-17T09:06:39.719Z,12.25
2022-09-17T09:09:13.662Z,13.02
2022-09-17T09:11:44.513Z,12.68
2022-09-17T09:14:17.603Z,14.50
2022-09-17T09:16:47.609Z,16.65
2022-09-17T09:19:22.954Z,14.88
2022-09-17T09:21:58.062Z,11.50
2022-09-17T09:24:30.088Z,13.70
2022-09-17T09:27:21.684Z,15.88
2022-09-17T09:29:51.564Z,26.77
2022-09-17T09:32:25.382Z,21.33
2022-09-17T09:34:56.643Z,13.82
2022-09-17T09:37:29.795Z,15.10
2022-09-17T09:40:00.977Z,14.65
2022-09-17T09:42:33.970Z,13.95
2022-09-17T09:45:05.840Z,13.20
2022-09-17T09:47:44.829Z,14.20
2022-09-17T09:57:51.650Z,15.20
2022-09-17T10:00:31.032Z,16.05
2022-09-17T10:03:06.880Z,20.95
2022-09-17T10:05:37.657Z,14.35
2022-09-17T10:08:17.073Z,16.85
2022-09-17T10:10:57.361Z,13.02
2022-09-17T10:13:27.573Z,22.58
2022-09-17T10:15:57.861Z,24.90
2022-09-17T10:18:28.236Z,16.65
2022-09-17T10:20:58.739Z,23.02
2022-09-17T10:23:29.301Z,24.33
2022-09-17T10:25:59.176Z,20.73
2022-09-17T10:28:32.277Z,20.10
2022-09-17T10:31:07.860Z,15.35
2022-09-17T10:33:38.919Z,19.77
2022-09-17T10:36:12.145Z,23.92
2022-09-17T10:38:45.357Z,19.52
2022-09-17T10:41:19.570Z,21.83
2022-09-17T10:43:49.845Z,17.75
2022-09-17T10:46:27.359Z,18.67
2022-09-17T10:49:09.963Z,19.38
2022-09-17T10:51:39.924Z,23.85
2022-09-17T10:54:09.803Z,23.70
2022-09-17T10:56:39.562Z,21.45
2022-09-17T10:59:15.897Z,24.30
2022-09-17T11:02:07.119Z,31.58
2022-09-17T11:04:57.286Z,26.52
2022-09-17T11:07:36.790Z,24.15
2022-09-17T11:10:15.201Z,28.15
2022-09-17T11:12:48.345Z,24.63
2022-09-17T11:15:27.793Z,28.23
2022-09-17T11:18:04.384Z,25.63
2022-09-17T11:20:46.986Z,26.77
2022-09-17T11:23:35.637Z,21.70
2022-09-17T11:26:07.957Z,20.45
2022-09-17T11:28:38.003Z,19.88
2022-09-17T11:31:08.453Z,19.77
2022-09-17T11:33:57.289Z,25.35
2022-09-17T11:36:29.360Z,22.05
2022-09-17T11:39:01.208Z,20.65
2022-09-17T11:41:42.549Z,19.20
2022-09-17T11:44:13.399Z,29.42
2022-09-17T11:46:46.935Z,18.17
2022-09-17T11:49:26.893Z,19.80
2022-09-17T11:52:01.035Z,18.65
2022-09-17T11:54:31.713Z,18.08
2022-09-17T11:57:09.488Z,17.20
2022-09-17T11:59:48.518Z,21.88
2022-09-17T12:02:34.691Z,16.55
2022-09-17T12:05:31.538Z,16.30
2022-09-17T12:08:02.052Z,17.35
2022-09-17T12:10:36.372Z,13.13
2022-09-17T12:13:07.391Z,12.15
2022-09-17T12:15:38.617Z,7.68
2022-09-17T12:18:32.129Z,12.18
2022-09-17T12:21:07.094Z,8.65
2022-09-17T12:23:38.401Z,10.57
2022-09-17T12:26:12.653Z,8.85
2022-09-17T12:29:15.832Z,13.60
2022-09-17T12:32:05.033Z,6.47
2022-09-17T12:34:55.735Z,8.77
2022-09-17T12:37:49.301Z,12.18
2022-09-17T12:40:38.663Z,7.78
2022-09-17T12:43:31.049Z,8.90
2022-09-17T12:46:17.532Z,9.95
2022-09-17T12:48:52.682Z,11.02
2022-09-17T12:51:23.840Z,12.90
2022-09-17T12:54:07.337Z,9.50
2022-09-17T12:56:39.474Z,9.13
2022-09-17T12:59:14.481Z,38.55
2022-09-17T13:01:49.452Z,18.73
2022-09-17T13:04:59.462Z,10.38
2022-09-17T13:07:31.502Z,8.55
2022-09-17T13:10:20.465Z,10.38
2022-09-17T13:12:51.974Z,12.32
2022-09-17T13:15:38.932Z,13.50
2022-09-17T13:18:32.983Z,9.23
2022-09-17T13:21:05.020Z,9.35
2022-09-17T13:23:39.132Z,13.27
2022-09-17T13:26:10.754Z,13.32
2022-09-17T13:28:47.490Z,13.25
2022-09-17T13:31:46.622Z,13.98
2022-09-17T13:34:24.217Z,8.27
2022-09-17T13:36:57.029Z,15.35
2022-09-17T13:39:41.376Z,10.70
2022-09-17T13:42:30.464Z,11.40
2022-09-17T13:47:36.798Z,15.00
2022-09-17T13:50:09.369Z,13.30
2022-09-17T13:52:46.717Z,13.18
2022-09-17T13:55:44.817Z,7.90
2022-09-17T13:58:17.000Z,13.80
2022-09-17T14:00:51.713Z,9.32
2022-09-17T14:03:40.745Z,10.93
2022-09-17T14:06:13.351Z,11.77
2022-09-17T14:08:51.775Z,11.93
2022-09-17T14:11:32.100Z,10.90
2022-09-17T14:14:11.861Z,13.52
2022-09-17T14:16:49.729Z,12.90
2022-09-17T14:19:22.105Z,9.98
2022-09-17T14:21:59.327Z,9.15
2022-09-17T14:24:38.753Z,9.23
2022-09-17T14:27:18.383Z,15.15
2022-09-17T14:30:09.816Z,6.97
2022-09-17T14:32:47.424Z,35.95
2022-09-17T14:35:21.420Z,9.48
2022-09-17T14:37:53.340Z,14.75
2022-09-17T14:40:23.606Z,7.80
2022-09-17T14:42:57.646Z,8.48
2022-09-17T14:45:29.837Z,7.07
2022-09-17T14:48:18.281Z,6.75
2022-09-17T14:50:48.223Z,6.90
2022-09-17T14:53:22.542Z,5.85
2022-09-17T14:55:52.744Z,5.50
2022-09-17T14:58:28.649Z,6.15
2022-09-17T15:00:58.827Z,6.55
2022-09-17T15:03:28.905Z,3.35
2022-09-17T15:05:58.730Z,6.78
2022-09-17T15:08:30.849Z,3.80
2022-09-17T15:11:01.091Z,5.00
2022-09-17T15:13:54.380Z,3.95
2022-09-17T15:16:32.091Z,2.28
2022-09-17T15:19:02.772Z,4.18
2022-09-17T15:21:32.841Z,4.93
2022-09-17T15:24:05.551Z,5.22
2022-09-17T15:26:36.666Z,4.38
2022-09-17T15:29:06.936Z,5.10
2022-09-17T15:31:38.817Z,2.40
2022-09-17T15:34:10.519Z,4.50
2022-09-17T15:36:41.137Z,4.15
2022-09-17T15:39:29.431Z,2.38
2022-09-17T15:42:02.418Z,5.97
2022-09-17T15:44:32.385Z,2.53
2022-09-17T15:47:20.310Z,3.83
2022-09-17T15:50:06.729Z,4.57
2022-09-17T15:52:39.518Z,6.15
2022-09-17T15:55:09.782Z,6.57
2022-09-17T15:57:39.545Z,5.72
2022-09-17T16:00:15.474Z,3.50
2022-09-17T16:02:45.518Z,7.00
2022-09-17T16:05:22.442Z,3.45
2022-09-17T16:07:52.205Z,7.15
2022-09-17T16:10:22.262Z,3.60
2022-09-17T16:12:52.183Z,3.15
2022-09-17T16:15:22.315Z,6.38
2022-09-17T16:17:52.224Z,6.03
2022-09-17T16:20:25.020Z,2.85
2022-09-17T16:22:55.141Z,4.60
2022-09-17T16:25:28.145Z,5.22
2022-09-17T16:28:02.524Z,4.35
2022-09-17T16:30:32.368Z,8.38
2022-09-17T16:33:05.116Z,4.72
2022-09-17T16:35:35.406Z,5.85
2022-09-17T16:38:05.920Z,6.82
2022-09-17T16:40:36.215Z,2.65
2022-09-17T16:43:06.737Z,7.80
2022-09-17T16:45:36.545Z,11.23
2022-09-17T16:48:06.614Z,7.70
2022-09-17T16:50:37.534Z,6.75
2022-09-17T16:53:07.272Z,7.53
2022-09-17T16:55:37.284Z,6.90
2022-09-17T16:58:07.038Z,10.65
2022-09-17T17:00:38.724Z,4.57
2022-09-17T17:03:08.920Z,5.43
2022-09-17T17:05:39.559Z,6.40
2022-09-17T17:08:10.239Z,8.98
2022-09-17T17:10:43.445Z,8.77
2022-09-17T17:13:13.508Z,3.60
2022-09-17T17:15:43.828Z,8.05
2022-09-17T17:18:13.623Z,14.13
2022-09-17T17:20:43.338Z,10.10
2022-09-17T17:23:13.907Z,15.70
2022-09-17T17:25:43.749Z,13.27
2022-09-17T17:28:13.829Z,11.70
2022-09-17T17:30:43.655Z,8.45
2022-09-17T17:33:13.697Z,7.75
2022-09-17T17:35:43.476Z,10.88
2022-09-17T17:38:13.633Z,3.97
2022-09-17T17:40:43.659Z,4.85
2022-09-17T17:43:13.991Z,5.72
2022-09-17T17:45:43.701Z,9.05
2022-09-17T17:48:13.573Z,11.55
2022-09-17T17:50:43.244Z,4.07
2022-09-17T17:53:13.044Z,5.50
2022-09-17T17:55:42.857Z,9.15
2022-09-17T17:58:12.825Z,4.57
2022-09-17T18:00:42.982Z,5.10
2022-09-17T18:03:12.895Z,5.95
2022-09-17T18:05:43.208Z,3.75
2022-09-17T18:08:13.227Z,4.43
2022-09-17T18:10:43.186Z,8.05
2022-09-17T18:13:13.044Z,2.78
2022-09-17T18:15:42.743Z,4.78
2022-09-17T18:18:12.433Z,4.97
2022-09-17T18:20:42.102Z,9.10
2022-09-17T18:23:11.759Z,5.47
2022-09-17T18:25:41.363Z,4.25
2022-09-17T18:28:11.240Z,4.78
2022-09-17T18:30:41.180Z,4.03
2022-09-17T18:33:11.276Z,9.43
2022-09-17T18:35:40.922Z,5.15
2022-09-17T18:38:10.524Z,3.67
2022-09-17T18:40:40.186Z,4.80
2022-09-17T18:43:10.118Z,3.38
2022-09-17T18:45:39.762Z,2.67
2022-09-17T18:48:09.537Z,2.97
2022-09-17T18:50:39.638Z,4.78
2022-09-17T18:53:09.523Z,7.72
2022-09-17T18:55:39.234Z,4.57
2022-09-17T18:58:08.887Z,10.63
2022-09-17T19:00:38.826Z,8.10
2022-09-17T19:03:08.554Z,9.13
2022-09-17T19:05:38.272Z,4.78
2022-09-17T19:08:07.975Z,7.50
2022-09-17T19:10:37.849Z,6.25
2022-09-17T19:13:07.499Z,8.43
2022-09-17T19:15:37.329Z,6.15
2022-09-17T19:18:07.324Z,6.50
2022-09-17T19:20:39.914Z,11.70
2022-09-17T19:23:09.693Z,7.88
2022-09-17T19:25:39.626Z,4.95
2022-09-17T19:28:09.540Z,7.40
2022-09-17T19:30:39.231Z,8.88
2022-09-17T19:33:08.936Z,3.13
2022-09-17T19:35:38.993Z,3.15
2022-09-17T19:38:13.109Z,8.23
2022-09-17T19:40:43.061Z,3.53
2022-09-17T19:43:12.758Z,13.23
2022-09-17T19:45:42.432Z,8.40
2022-09-17T19:48:12.332Z,24.25
2022-09-17T19:50:42.059Z,28.80
2022-09-17T19:53:11.778Z,9.75
2022-09-17T19:55:41.684Z,3.55
2022-09-17T19:58:11.558Z,5.07
2022-09-17T20:00:41.198Z,9.68
2022-09-17T20:03:11.403Z,4.70
2022-09-17T20:05:41.298Z,4.05
2022-09-17T20:08:10.932Z,2.50
2022-09-17T20:10:40.657Z,9.30
2022-09-17T20:13:10.371Z,1.27
2022-09-17T20:15:40.267Z,4.03
2022-09-17T20:18:09.880Z,5.38
2022-09-17T20:20:43.331Z,7.53
2022-09-17T20:23:13.139Z,5.80
2022-09-17T20:25:42.876Z,3.80
2022-09-17T20:28:12.461Z,2.50
2022-09-17T20:30:43.332Z,11.35
2022-09-17T20:33:12.970Z,6.50
2022-09-17T20:35:42.955Z,3.28
2022-09-17T20:39:09.392Z,6.93
2022-09-17T20:41:06.036Z,4.18
2022-09-17T20:43:36.245Z,8.35
2022-09-17T20:46:06.179Z,3.50
2022-09-17T20:48:36.312Z,5.45
2022-09-17T20:51:07.288Z,7.53
2022-09-17T20:53:37.568Z,6.32
2022-09-17T20:56:11.226Z,3.65
2022-09-17T20:58:46.748Z,6.80
2022-09-17T21:01:22.279Z,3.50
2022-09-17T21:03:52.703Z,6.15
2022-09-17T21:06:28.883Z,6.50
2022-09-17T21:08:58.871Z,3.80
2022-09-17T21:11:28.750Z,2.22
2022-09-17T21:13:58.715Z,5.38
2022-09-17T21:16:28.490Z,5.30
2022-09-17T21:18:59.688Z,8.65
2022-09-17T21:21:29.708Z,4.47
2022-09-17T21:24:02.598Z,4.32
2022-09-17T21:26:32.354Z,9.90
2022-09-17T21:29:02.400Z,7.20
2022-09-17T21:31:33.480Z,6.13
2022-09-17T21:34:05.269Z,4.90
2022-09-17T21:36:36.001Z,3.38
2022-09-17T21:39:06.961Z,7.82
2022-09-17T21:41:42.502Z,7.47
2022-09-17T21:44:13.311Z,5.68
2022-09-17T21:46:44.043Z,7.90
2022-09-17T21:49:14.830Z,7.80
2022-09-17T21:51:44.884Z,5.43
2022-09-17T21:54:15.087Z,6.95
2022-09-17T21:56:44.796Z,6.25
2022-09-17T21:59:14.969Z,10.77
2022-09-17T22:01:47.963Z,7.25
2022-09-17T22:04:18.961Z,4.15
2022-09-17T22:06:48.856Z,11.73
2022-09-17T22:09:25.990Z,6.03
2022-09-17T22:11:56.477Z,5.18
2022-09-17T22:14:28.341Z,7.43
2022-09-17T22:17:00.336Z,4.55
2022-09-17T22:19:30.296Z,4.72
2022-09-17T22:22:00.161Z,8.35
2022-09-17T22:24:29.855Z,7.85
2022-09-17T22:26:59.915Z,7.22
2022-09-17T22:29:32.854Z,3.85
2022-09-17T22:32:02.606Z,6.03
2022-09-17T22:34:32.671Z,6.00
2022-09-17T22:37:02.375Z,6.05
2022-09-17T22:39:32.439Z,4.72
2022-09-17T22:42:02.437Z,6.65
2022-09-17T22:44:36.025Z,5.97
2022-09-17T22:47:05.841Z,7.18
2022-09-17T22:49:35.752Z,10.35
2022-09-17T22:52:05.805Z,9.50
2022-09-17T22:54:35.534Z,3.65
2022-09-17T22:57:05.197Z,6.45
2022-09-17T22:59:34.807Z,4.03
2022-09-17T23:02:04.590Z,8.63
2022-09-17T23:04:34.299Z,6.72
2022-09-17T23:07:04.232Z,7.18
2022-09-17T23:09:33.836Z,7.63
2022-09-17T23:12:03.695Z,10.73
2022-09-17T23:14:33.875Z,6.25
2022-09-17T23:17:03.743Z,7.25
2022-09-17T23:19:33.491Z,8.30
2022-09-17T23:22:03.218Z,9.90
2022-09-17T23:24:35.728Z,5.85
2022-09-17T23:27:05.596Z,7.05
2022-09-17T23:29:35.620Z,12.55
2022-09-17T23:32:05.444Z,4.38
2022-09-17T23:34:36.520Z,11.75
2022-09-17T23:37:06.418Z,10.50
2022-09-17T23:39:36.032Z,9.45
2022-09-17T23:42:06.064Z,5.72
2022-09-17T23:44:35.929Z,7.10
2022-09-17T23:47:05.969Z,6.95
2022-09-17T23:49:35.744Z,7.15
2022-09-17T23:52:06.476Z,6.10
2022-09-17T23:54:43.038Z,7.70
2022-09-17T23:57:12.713Z,6.35
2022-09-17T23:59:42.421Z,7.05
